Time;durP1;ratioP1;P1;durP2;ratioP2;P2;SDS_P1;SDS_P2;PMS_P1;PMS_P2;Temp;Humidity;BMP_temperature;BMP_pressure;BME280_temperature;BME280_humidity;BME280_pressure;Samples;Min_cycle;Max_cycle;Signal;HPM_P1;HPM_P2
2021/01/18 00:00:56;;;;;;;30.00;14.50;;;;;;;-7.81;85.13;95842.94;5110283;28;20246;-64
2021/01/18 00:03:23;;;;;;;17.17;9.87;;;;;;;-7.91;85.04;95833.09;5110783;28;20274;-65
2021/01/18 00:05:50;;;;;;;21.87;12.00;;;;;;;-7.80;84.39;95843.72;5110709;28;20195;-64
2021/01/18 00:08:17;;;;;;;17.73;9.73;;;;;;;-7.90;84.40;95846.47;5110829;28;20278;-64
2021/01/18 00:10:44;;;;;;;21.73;10.60;;;;;;;-8.00;84.80;95839.16;5111053;28;20662;-64
2021/01/18 00:13:11;;;;;;;20.30;10.97;;;;;;;-8.15;85.21;95840.06;5110497;28;20291;-64
2021/01/18 00:15:38;;;;;;;24.10;11.90;;;;;;;-8.08;85.18;95841.75;5110493;28;20232;-65
2021/01/18 00:18:05;;;;;;;22.67;11.37;;;;;;;-8.24;85.74;95851.16;5110580;28;20360;-64
2021/01/18 00:20:32;;;;;;;20.17;10.67;;;;;;;-8.26;85.92;95846.25;5110311;28;20294;-63
2021/01/18 00:22:59;;;;;;;20.20;10.07;;;;;;;-8.30;85.93;95855.16;5110762;28;20311;-64
2021/01/18 00:25:26;;;;;;;18.30;10.50;;;;;;;-8.27;85.91;95852.28;5110421;28;20234;-64
2021/01/18 00:27:53;;;;;;;22.67;10.43;;;;;;;-8.23;85.51;95853.50;5110424;28;20240;-64
2021/01/18 00:30:24;;;;;;;19.87;10.23;;;;;;;-8.40;86.00;95855.38;5110305;28;20203;-64
2021/01/18 00:32:51;;;;;;;19.60;9.73;;;;;;;-8.41;86.64;95858.03;5110318;28;20219;-64
2021/01/18 00:35:20;;;;;;;20.57;8.90;;;;;;;-8.42;86.36;95859.03;5110673;28;20227;-64
2021/01/18 00:37:49;;;;;;;18.83;9.03;;;;;;;-8.47;85.73;95861.25;5110808;28;20197;-64
2021/01/18 00:40:18;;;;;;;19.47;9.43;;;;;;;-8.51;86.18;95860.78;5110160;28;20730;-64
2021/01/18 00:42:46;;;;;;;15.73;8.50;;;;;;;-8.45;86.04;95870.19;5110241;28;20680;-64
2021/01/18 00:45:13;;;;;;;18.37;9.17;;;;;;;-8.46;85.52;95877.91;5110177;28;20708;-65
2021/01/18 00:47:42;;;;;;;17.17;9.27;;;;;;;-8.56;86.03;95872.31;5110140;28;20200;-64
2021/01/18 00:50:11;;;;;;;16.43;8.67;;;;;;;-8.51;85.81;95872.59;5110537;28;20202;-64
2021/01/18 00:52:40;;;;;;;14.37;8.37;;;;;;;-8.68;86.60;95871.13;5110470;28;20190;-64
2021/01/18 00:55:08;;;;;;;17.93;9.13;;;;;;;-8.58;85.69;95874.22;5110221;28;20226;-64
2021/01/18 00:57:35;;;;;;;16.37;8.03;;;;;;;-8.55;84.88;95876.41;5110402;28;20195;-64
2021/01/18 01:00:04;;;;;;;15.70;7.33;;;;;;;-8.58;84.92;95881.78;5109985;28;20282;-64
2021/01/18 01:02:32;;;;;;;13.87;8.17;;;;;;;-8.68;85.81;95879.47;5110050;28;20198;-63
2021/01/18 01:05:00;;;;;;;17.33;8.77;;;;;;;-8.59;85.97;95877.69;5110342;28;20443;-63
2021/01/18 01:07:26;;;;;;;14.93;8.43;;;;;;;-8.61;85.86;95875.31;5110170;28;20242;-63
2021/01/18 01:09:53;;;;;;;16.80;9.20;;;;;;;-8.61;85.78;95879.56;5110309;28;20183;-64
2021/01/18 01:12:21;;;;;;;14.20;8.03;;;;;;;-8.64;85.75;95889.97;5111986;28;20319;-63
2021/01/18 01:14:49;;;;;;;16.90;8.33;;;;;;;-8.76;85.70;95889.53;5113677;28;20203;-64
2021/01/18 01:17:16;;;;;;;17.70;8.90;;;;;;;-8.75;85.96;95888.59;5113869;28;20286;-63
2021/01/18 01:19:42;;;;;;;16.00;8.80;;;;;;;-8.57;85.21;95898.47;5114033;28;20606;-64
2021/01/18 01:22:10;;;;;;;13.03;7.07;;;;;;;-8.65;85.17;95898.47;5113641;28;20241;-64
2021/01/18 01:24:37;;;;;;;15.23;8.23;;;;;;;-8.74;85.67;95890.97;5113520;28;20282;-64
2021/01/18 01:27:04;;;;;;;15.40;8.17;;;;;;;-8.69;85.16;95885.44;5113592;28;20217;-64
2021/01/18 01:29:31;;;;;;;16.73;8.83;;;;;;;-8.69;85.30;95882.13;5113707;28;20236;-65
2021/01/18 01:31:58;;;;;;;18.10;9.00;;;;;;;-8.65;85.20;95885.88;5113517;28;20294;-64
2021/01/18 01:34:25;;;;;;;18.60;9.53;;;;;;;-8.59;85.17;95885.22;5113766;28;20195;-64
2021/01/18 01:36:52;;;;;;;16.87;8.47;;;;;;;-8.68;85.32;95883.72;5113391;28;20324;-65
2021/01/18 01:39:19;;;;;;;16.10;8.40;;;;;;;-8.64;85.26;95883.22;5113732;28;20263;-65
2021/01/18 01:41:46;;;;;;;18.20;8.47;;;;;;;-8.81;85.46;95879.97;5113238;28;20191;-63
2021/01/18 01:44:13;;;;;;;17.13;8.80;;;;;;;-8.76;85.69;95882.78;5113423;28;20231;-63
2021/01/18 01:46:40;;;;;;;14.87;8.33;;;;;;;-8.82;85.86;95880.16;5113266;28;20282;-63
2021/01/18 01:49:07;;;;;;;14.03;7.57;;;;;;;-8.96;85.49;95895.91;5113290;28;20226;-63
2021/01/18 01:51:35;;;;;;;12.73;7.37;;;;;;;-9.17;84.72;95888.94;5113214;28;20282;-64
2021/01/18 01:54:02;;;;;;;10.67;6.80;;;;;;;-9.36;84.33;95896.81;5113111;28;20282;-64
2021/01/18 01:56:30;;;;;;;12.53;6.97;;;;;;;-9.44;84.56;95899.34;5113025;28;20226;-64
2021/01/18 01:58:59;;;;;;;14.90;7.60;;;;;;;-9.45;84.45;95896.03;5113040;28;20741;-65
2021/01/18 02:01:26;;;;;;;14.83;8.13;;;;;;;-9.33;84.84;95894.00;5113157;28;20216;-65
2021/01/18 02:03:57;;;;;;;16.77;9.13;;;;;;;-9.15;85.00;95897.09;5112900;28;20781;-62
2021/01/18 02:06:24;;;;;;;17.47;9.60;;;;;;;-9.02;84.69;95894.06;5112929;28;20200;-65
2021/01/18 02:08:51;;;;;;;14.90;7.03;;;;;;;-8.95;84.31;95893.25;5112839;28;20222;-64
2021/01/18 02:11:19;;;;;;;13.93;8.57;;;;;;;-9.01;83.79;95896.41;5112803;28;20274;-65
2021/01/18 02:14:07;;;;;;;18.83;8.13;;;;;;;-9.03;84.12;95895.00;5112617;28;20227;-64
2021/01/18 02:16:42;;;;;;;12.10;7.00;;;;;;;-9.17;84.25;95902.28;5112818;28;20306;-63
2021/01/18 02:19:38;;;;;;;15.63;7.80;;;;;;;-9.32;84.03;95895.56;5112624;28;20581;-64
2021/01/18 02:22:41;;;;;;;14.60;7.97;;;;;;;-9.33;85.29;95904.06;5112238;28;20187;-64
2021/01/18 02:25:23;;;;;;;14.13;7.63;;;;;;;-9.40;84.94;95898.88;5076239;28;20199;-66
2021/01/18 02:28:13;;;;;;;14.80;8.10;;;;;;;-9.60;86.21;95893.41;5112879;28;20199;-64
2021/01/18 02:31:13;;;;;;;20.40;9.43;;;;;;;-9.42;85.74;95895.75;5112388;28;20232;-65
2021/01/18 02:34:13;;;;;;;18.00;9.47;;;;;;;-9.32;85.26;95893.06;5112462;28;20200;-65
2021/01/18 02:36:49;;;;;;;16.70;8.60;;;;;;;-9.43;84.88;95898.41;5112283;28;20230;-64
2021/01/18 02:39:26;;;;;;;17.70;8.77;;;;;;;-9.52;84.82;95899.38;5112271;28;20598;-65
2021/01/18 02:41:59;;;;;;;14.83;8.37;;;;;;;-9.50;85.75;95903.28;5112285;28;20198;-65
2021/01/18 02:44:29;;;;;;;16.73;9.07;;;;;;;-9.39;84.82;95907.19;5112186;28;20270;-64
2021/01/18 02:46:59;;;;;;;10.90;6.40;;;;;;;-9.43;84.46;95913.50;5112201;28;20761;-64
2021/01/18 02:49:26;;;;;;;14.57;7.37;;;;;;;-9.56;85.33;95905.66;5112271;28;20191;-64
2021/01/18 02:51:59;;;;;;;16.20;7.77;;;;;;;-9.44;84.69;95909.41;5111963;28;20278;-64
2021/01/18 02:54:26;;;;;;;16.63;7.73;;;;;;;-9.62;84.93;95909.59;5112004;28;20209;-64
2021/01/18 02:56:54;;;;;;;16.40;8.03;;;;;;;-9.55;85.32;95912.25;5111651;28;20314;-64
2021/01/18 02:59:22;;;;;;;14.47;7.80;;;;;;;-9.56;84.97;95913.97;5112213;28;20199;-64
2021/01/18 03:02:15;;;;;;;16.03;7.93;;;;;;;-9.70;85.59;95907.84;5112072;28;20222;-65
2021/01/18 03:05:20;;;;;;;13.23;6.70;;;;;;;-9.77;85.58;95916.19;5111838;28;20669;-62
2021/01/18 03:07:59;;;;;;;17.27;7.83;;;;;;;-9.80;85.58;95908.97;5009228;28;20203;-64
2021/01/18 03:10:32;;;;;;;17.40;8.30;;;;;;;-9.73;85.49;95912.41;5101935;28;20745;-64
2021/01/18 03:13:03;;;;;;;12.53;7.00;;;;;;;-9.64;84.61;95914.00;5111803;28;20249;-65
2021/01/18 03:15:37;;;;;;;12.43;7.10;;;;;;;-9.71;84.95;95910.53;5111487;28;20617;-64
2021/01/18 03:18:07;;;;;;;11.13;7.00;;;;;;;-9.68;84.53;95908.50;5111522;28;20677;-64
2021/01/18 03:20:35;;;;;;;14.50;7.10;;;;;;;-9.88;85.35;95907.25;5111587;28;20269;-65
2021/01/18 03:23:06;;;;;;;15.70;8.23;;;;;;;-9.91;85.28;95915.06;5111404;28;20187;-64
2021/01/18 03:25:46;;;;;;;13.77;7.20;;;;;;;-9.96;85.52;95912.25;5111653;28;20199;-64
2021/01/18 03:28:12;;;;;;;15.57;7.47;;;;;;;-9.94;86.06;95914.63;5111344;28;20243;-65
2021/01/18 03:30:39;;;;;;;17.87;8.70;;;;;;;-9.94;85.58;95905.34;5111395;28;20287;-64
2021/01/18 03:33:06;;;;;;;21.17;10.13;;;;;;;-9.93;85.64;95911.16;5111238;28;20274;-64
2021/01/18 03:35:34;;;;;;;17.63;9.63;;;;;;;-9.99;85.56;95910.06;5110386;28;20279;-64
2021/01/18 03:38:00;;;;;;;18.30;9.47;;;;;;;-9.97;85.52;95915.72;5110989;28;20279;-63
2021/01/18 03:40:29;;;;;;;20.23;10.70;;;;;;;-9.81;85.07;95910.69;5111036;28;20290;-64
2021/01/18 03:42:57;;;;;;;22.70;10.90;;;;;;;-9.88;85.11;95914.00;5111458;28;20202;-64
2021/01/18 03:45:24;;;;;;;21.70;10.30;;;;;;;-9.73;84.78;95920.75;5111034;28;20672;-64
2021/01/18 03:47:51;;;;;;;23.07;13.23;;;;;;;-9.62;84.74;95917.13;5111114;28;20210;-64
2021/01/18 03:50:18;;;;;;;20.90;11.63;;;;;;;-9.53;83.94;95926.25;5111116;28;20188;-65
2021/01/18 03:52:49;;;;;;;18.30;10.90;;;;;;;-9.49;83.37;95926.69;5110904;28;20307;-64
2021/01/18 03:55:17;;;;;;;26.50;13.00;;;;;;;-9.47;84.12;95923.09;5110829;28;20677;-64
2021/01/18 03:57:47;;;;;;;19.30;9.60;;;;;;;-9.38;83.02;95926.38;5110994;28;20198;-65
2021/01/18 04:00:15;;;;;;;17.40;9.97;;;;;;;-9.34;82.75;95933.44;5110994;28;20191;-64
2021/01/18 04:02:42;;;;;;;14.50;7.73;;;;;;;-9.46;82.13;95944.00;5110782;28;20691;-64
2021/01/18 04:05:10;;;;;;;14.73;8.33;;;;;;;-9.65;82.22;95938.34;5110681;28;20244;-64
2021/01/18 04:07:36;;;;;;;13.77;7.70;;;;;;;-9.82;83.80;95941.81;5110633;28;20670;-64
2021/01/18 04:10:04;;;;;;;12.63;7.23;;;;;;;-9.77;83.94;95932.06;5110627;28;20237;-64
2021/01/18 04:12:31;;;;;;;16.63;7.43;;;;;;;-9.83;83.88;95939.44;5110516;28;20321;-64
2021/01/18 04:14:59;;;;;;;13.03;7.03;;;;;;;-9.86;84.31;95939.75;5110522;28;20255;-63
2021/01/18 04:17:26;;;;;;;16.30;8.70;;;;;;;-9.84;84.15;95946.19;5110383;28;20227;-64
2021/01/18 04:19:52;;;;;;;18.17;9.60;;;;;;;-9.63;83.31;95951.56;5110624;28;20278;-65
2021/01/18 04:22:19;;;;;;;20.97;10.50;;;;;;;-9.84;84.60;95941.16;5110509;28;20199;-64
2021/01/18 04:24:46;;;;;;;25.50;12.10;;;;;;;-9.74;84.43;95946.81;5110637;28;20638;-64
2021/01/18 04:27:13;;;;;;;22.80;12.47;;;;;;;-9.61;83.83;95948.84;5110492;28;20278;-64
2021/01/18 04:29:40;;;;;;;38.53;12.70;;;;;;;-9.63;84.29;95949.03;5110349;28;20286;-65
2021/01/18 04:32:08;;;;;;;22.23;11.40;;;;;;;-9.52;83.87;95949.66;5110487;28;20211;-64
2021/01/18 04:34:34;;;;;;;18.87;10.63;;;;;;;-9.58;83.34;95951.06;5110315;28;20202;-64
2021/01/18 04:37:01;;;;;;;32.13;10.93;;;;;;;-9.44;83.49;95957.97;5110598;28;20306;-64
2021/01/18 04:39:28;;;;;;;20.50;11.20;;;;;;;-9.37;82.55;95958.16;5110821;28;20199;-65
2021/01/18 04:41:59;;;;;;;27.30;12.53;;;;;;;-9.53;82.10;95960.66;5110276;28;20282;-64
2021/01/18 04:44:28;;;;;;;20.73;11.43;;;;;;;-9.58;83.07;95953.59;5110184;28;20283;-65
2021/01/18 04:46:56;;;;;;;21.20;12.20;;;;;;;-9.60;83.47;95955.47;5113725;28;20686;-64
2021/01/18 04:49:27;;;;;;;33.10;13.83;;;;;;;-9.60;83.39;95957.97;5114385;28;20233;-64
2021/01/18 04:51:55;;;;;;;51.87;21.70;;;;;;;-9.46;83.64;95964.13;5114547;28;20320;-65
2021/01/18 04:54:23;;;;;;;47.60;21.17;;;;;;;-9.46;83.68;95961.63;5114409;28;20677;-64
2021/01/18 04:57:12;;;;;;;46.67;21.83;;;;;;;-9.54;83.31;95967.41;5114148;28;20231;-64
2021/01/18 04:59:40;;;;;;;51.97;22.10;;;;;;;-9.51;83.93;95971.34;5108394;28;20275;-64
2021/01/18 05:02:10;;;;;;;39.93;17.73;;;;;;;-9.42;84.44;95976.22;5114131;28;20278;-64
2021/01/18 05:04:43;;;;;;;27.83;14.40;;;;;;;-9.44;84.12;95978.09;5114040;28;20790;-65
2021/01/18 05:07:48;;;;;;;29.17;14.20;;;;;;;-9.41;83.19;95990.34;5114037;28;20195;-64
2021/01/18 05:10:25;;;;;;;35.67;16.63;;;;;;;-9.29;82.53;95990.81;5113897;28;20234;-64
2021/01/18 05:12:56;;;;;;;28.80;15.13;;;;;;;-9.33;82.63;95984.53;5113676;28;20318;-64
2021/01/18 05:15:24;;;;;;;33.93;16.70;;;;;;;-9.38;82.74;95986.75;5113774;28;20711;-64
2021/01/18 05:17:59;;;;;;;39.10;17.13;;;;;;;-9.36;82.98;95984.84;5113745;28;20195;-63
2021/01/18 05:20:27;;;;;;;52.60;24.93;;;;;;;-9.20;81.56;95995.69;5113761;28;20218;-64
2021/01/18 05:22:55;;;;;;;45.83;19.07;;;;;;;-9.38;81.52;95995.09;5114125;28;20198;-65
2021/01/18 05:25:23;;;;;;;164.90;58.80;;;;;;;-9.51;82.19;95986.44;5113893;28;20264;-64
2021/01/18 05:28:09;;;;;;;48.10;20.93;;;;;;;-9.62;82.98;95990.84;5113741;28;20218;-63
2021/01/18 05:30:37;;;;;;;48.60;19.50;;;;;;;-9.51;83.84;95996.50;5113465;28;20225;-64
2021/01/18 05:33:07;;;;;;;57.80;26.67;;;;;;;-9.34;82.90;95998.06;5113424;28;20195;-64
2021/01/18 05:35:36;;;;;;;45.23;19.73;;;;;;;-9.37;82.78;96001.69;5113506;28;20265;-64
2021/01/18 05:38:09;;;;;;;55.67;22.03;;;;;;;-9.37;82.40;95999.19;5113391;28;20278;-64
2021/01/18 05:40:41;;;;;;;42.57;17.80;;;;;;;-9.56;83.19;95998.69;5113378;28;20191;-64
2021/01/18 05:43:09;;;;;;;27.30;12.33;;;;;;;-9.53;83.58;95998.38;5113299;28;20219;-64
2021/01/18 05:45:38;;;;;;;29.77;14.40;;;;;;;-9.61;82.92;95997.41;5113272;28;20201;-65
2021/01/18 05:48:06;;;;;;;22.60;11.97;;;;;;;-9.71;84.01;95989.25;5113167;28;20198;-64
2021/01/18 05:50:35;;;;;;;26.50;13.90;;;;;;;-9.78;83.95;95995.84;5113216;28;20196;-64
2021/01/18 05:53:03;;;;;;;32.77;15.00;;;;;;;-9.72;83.58;95995.22;5113170;28;20352;-63
2021/01/18 05:55:31;;;;;;;44.43;21.73;;;;;;;-9.71;83.38;96006.06;5113033;28;20274;-64
2021/01/18 05:57:59;;;;;;;51.43;27.83;;;;;;;-9.73;82.76;96005.44;5112239;28;20267;-64
2021/01/18 06:00:28;;;;;;;66.17;39.30;;;;;;;-9.86;83.40;96003.34;5113061;28;20685;-64
2021/01/18 06:02:56;;;;;;;60.60;29.50;;;;;;;-9.89;83.82;96006.19;5112945;28;20510;-64
2021/01/18 06:05:25;;;;;;;49.70;26.33;;;;;;;-9.92;84.16;96006.50;5113127;28;20222;-64
2021/01/18 06:07:53;;;;;;;34.63;18.70;;;;;;;-9.85;84.47;96009.16;5113182;28;20199;-64
2021/01/18 06:10:32;;;;;;;36.60;17.93;;;;;;;-9.84;84.76;96011.53;5112982;28;20216;-64
2021/01/18 06:12:59;;;;;;;49.43;23.23;;;;;;;-9.78;84.73;96020.19;5112626;28;20258;-64
2021/01/18 06:15:26;;;;;;;29.30;14.07;;;;;;;-9.77;84.56;96021.78;5112524;28;20238;-64
2021/01/18 06:17:56;;;;;;;33.50;15.77;;;;;;;-9.69;84.04;96025.06;5112554;28;20286;-64
2021/01/18 06:20:25;;;;;;;25.70;13.30;;;;;;;-9.66;84.01;96022.25;5112624;28;20192;-64
2021/01/18 06:22:55;;;;;;;39.00;20.27;;;;;;;-9.66;84.52;96027.28;5112459;28;20230;-64
2021/01/18 06:25:24;;;;;;;25.53;13.93;;;;;;;-9.52;84.54;96033.44;5112570;28;20283;-64
2021/01/18 06:27:52;;;;;;;29.80;13.97;;;;;;;-9.49;83.60;96024.78;5112622;28;20218;-64
2021/01/18 06:30:27;;;;;;;26.47;12.67;;;;;;;-9.47;82.63;96031.25;5112377;28;20192;-64
2021/01/18 06:32:55;;;;;;;38.37;18.93;;;;;;;-9.42;82.77;96031.56;5112528;28;20271;-63
2021/01/18 06:35:27;;;;;;;29.83;13.77;;;;;;;-9.27;82.48;96040.06;5112253;28;20278;-64
2021/01/18 06:38:00;;;;;;;46.73;18.87;;;;;;;-9.15;82.37;96043.03;5112306;28;20677;-65
2021/01/18 06:40:32;;;;;;;39.50;16.47;;;;;;;-9.13;83.09;96036.13;5112432;28;20196;-64
2021/01/18 06:43:00;;;;;;;29.23;12.30;;;;;;;-9.27;83.48;96030.00;5112248;28;20240;-63
2021/01/18 06:45:31;;;;;;;59.23;21.80;;;;;;;-9.04;83.35;96040.19;5112123;28;20227;-63
2021/01/18 06:47:59;;;;;;;204.60;49.33;;;;;;;-8.98;83.64;96047.13;5112082;28;20240;-63
2021/01/18 06:50:32;;;;;;;236.43;59.90;;;;;;;-8.83;84.63;96044.75;5112257;28;20226;-64
2021/01/18 06:53:22;;;;;;;280.50;64.90;;;;;;;-8.74;84.92;96049.59;5112093;28;20194;-64
2021/01/18 06:56:26;;;;;;;465.50;108.17;;;;;;;-8.67;85.52;96056.53;5111827;28;20314;-64
2021/01/18 06:59:03;;;;;;;387.40;79.33;;;;;;;-8.53;86.07;96060.91;5111881;28;20252;-64
2021/01/18 07:01:31;;;;;;;121.10;40.20;;;;;;;-8.31;86.33;96062.72;5111972;28;20601;-63
2021/01/18 07:04:06;;;;;;;45.10;19.93;;;;;;;-8.08;86.14;96071.13;5111756;28;20229;-64
2021/01/18 07:06:36;;;;;;;32.37;14.17;;;;;;;-8.01;86.50;96074.53;5111697;28;20278;-64
2021/01/18 07:09:06;;;;;;;27.73;13.77;;;;;;;-7.87;87.15;96070.56;5111657;28;20234;-64
2021/01/18 07:11:33;;;;;;;53.27;20.47;;;;;;;-7.67;86.79;96070.94;5111676;28;20179;-64
2021/01/18 07:14:03;;;;;;;323.80;90.10;;;;;;;-7.55;85.13;96080.47;5111600;28;20238;-61
2021/01/18 07:16:31;;;;;;;468.07;136.60;;;;;;;-7.63;84.96;96079.75;5111562;28;20231;-64
2021/01/18 07:19:00;;;;;;;366.10;101.20;;;;;;;-7.50;84.89;96077.44;5111579;28;20242;-64
2021/01/18 07:21:30;;;;;;;353.27;105.80;;;;;;;-7.35;84.55;96070.72;5111537;28;20210;-64
2021/01/18 07:23:59;;;;;;;166.20;50.10;;;;;;;-7.19;83.86;96075.69;5111496;28;20203;-64
2021/01/18 07:26:53;;;;;;;89.07;34.53;;;;;;;-7.07;83.86;96076.84;5111320;28;20200;-65
2021/01/18 07:29:22;;;;;;;264.47;53.17;;;;;;;-6.89;84.40;96085.88;5111666;28;20663;-64
2021/01/18 07:31:54;;;;;;;367.30;75.70;;;;;;;-6.79;83.32;96081.38;5111120;28;20221;-63
2021/01/18 07:34:22;;;;;;;114.87;32.13;;;;;;;-6.74;83.81;96081.63;5111225;28;20809;-64
2021/01/18 07:36:50;;;;;;;43.60;20.83;;;;;;;-6.76;83.26;96081.81;5111229;28;20232;-64
2021/01/18 07:39:25;;;;;;;130.37;40.00;;;;;;;-6.76;83.19;96078.50;5111073;28;20684;-63
2021/01/18 07:41:53;;;;;;;169.87;47.43;;;;;;;-6.64;83.48;96079.66;5111323;28;20227;-64
2021/01/18 07:44:44;;;;;;;138.30;43.13;;;;;;;-6.35;83.35;96087.28;5110980;28;20312;-64
2021/01/18 07:47:12;;;;;;;63.87;26.30;;;;;;;-6.14;82.21;96086.59;5111251;28;20659;-64
2021/01/18 07:49:41;;;;;;;287.57;64.53;;;;;;;-5.95;82.04;96092.84;5111028;28;20760;-63
2021/01/18 07:52:28;;;;;;;188.13;46.00;;;;;;;-5.76;81.74;96098.13;5110981;28;20658;-63
2021/01/18 07:55:00;;;;;;;29.37;15.03;;;;;;;-5.63;83.78;96094.97;5110907;28;20198;-64
2021/01/18 07:57:36;;;;;;;12.07;7.00;;;;;;;-5.37;81.15;96099.50;5110984;28;20328;-64
2021/01/18 08:00:36;;;;;;;12.67;6.70;;;;;;;-5.24;79.43;96108.06;5110889;28;20204;-64
2021/01/18 08:03:27;;;;;;;11.63;6.87;;;;;;;-5.25;78.17;96098.09;5110707;28;20675;-63
2021/01/18 08:06:06;;;;;;;10.40;6.77;;;;;;;-5.28;77.78;96098.47;5110748;28;20202;-64
2021/01/18 08:08:34;;;;;;;11.70;7.10;;;;;;;-5.23;78.42;96103.78;5110924;28;20273;-64
2021/01/18 08:11:06;;;;;;;15.67;7.93;;;;;;;-5.12;80.25;96107.56;5110633;28;20235;-64
2021/01/18 08:13:49;;;;;;;12.63;7.60;;;;;;;-5.16;79.71;96098.75;5110316;28;20226;-64
2021/01/18 08:16:24;;;;;;;16.83;8.30;;;;;;;-5.19;78.92;96094.06;5106825;28;20640;-63
2021/01/18 08:18:59;;;;;;;16.80;9.20;;;;;;;-5.18;80.18;96104.03;5110678;28;20296;-64
2021/01/18 08:21:46;;;;;;;13.43;8.53;;;;;;;-5.10;80.75;96100.56;5110231;28;20202;-64
2021/01/18 08:24:15;;;;;;;16.50;8.23;;;;;;;-4.94;79.48;96091.00;5110888;28;20638;-63
2021/01/18 08:26:54;;;;;;;14.27;7.67;;;;;;;-4.98;79.79;96109.28;5110370;28;20237;-64
2021/01/18 08:29:45;;;;;;;16.03;8.60;;;;;;;-4.83;79.90;96107.44;5110496;28;20209;-63
2021/01/18 08:32:35;;;;;;;18.00;8.50;;;;;;;-4.92;79.60;96113.59;5110231;28;20223;-64
2021/01/18 08:35:05;;;;;;;12.60;7.47;;;;;;;-4.76;78.06;96108.28;5110505;28;20199;-65
2021/01/18 08:37:34;;;;;;;14.10;8.27;;;;;;;-4.74;77.52;96108.91;5110312;28;20314;-64
2021/01/18 08:40:02;;;;;;;13.30;7.50;;;;;;;-4.75;76.95;96114.94;5110307;28;20226;-65
2021/01/18 08:42:33;;;;;;;13.00;7.90;;;;;;;-4.79;76.20;96113.72;5110252;28;20286;-64
2021/01/18 08:45:04;;;;;;;11.13;7.40;;;;;;;-4.84;75.64;96110.97;5110258;28;20340;-63
2021/01/18 08:47:38;;;;;;;11.17;6.17;;;;;;;-4.80;75.16;96112.94;5110350;28;20685;-65
2021/01/18 08:50:23;;;;;;;10.77;6.00;;;;;;;-4.52;72.68;96115.50;5110174;28;20277;-64
2021/01/18 08:52:51;;;;;;;13.00;6.43;;;;;;;-4.29;73.66;96109.41;5110245;28;20278;-63
2021/01/18 08:55:52;;;;;;;8.70;6.00;;;;;;;-4.31;72.52;96116.41;5110110;28;20195;-64
2021/01/18 08:58:41;;;;;;;12.37;6.27;;;;;;;-4.48;69.98;96121.75;5110257;28;20514;-64
2021/01/18 09:01:11;;;;;;;11.57;6.53;;;;;;;-4.41;71.56;96120.06;5110130;28;20777;-64
2021/01/18 09:03:38;;;;;;;13.00;6.93;;;;;;;-4.33;72.14;96114.06;5110373;28;20200;-64
2021/01/18 09:06:06;;;;;;;8.83;6.33;;;;;;;-4.42;72.40;96115.16;5110117;28;20234;-64
2021/01/18 09:08:33;;;;;;;13.87;7.27;;;;;;;-4.46;73.80;96108.91;5110076;28;20233;-64
2021/01/18 09:11:01;;;;;;;14.43;7.13;;;;;;;-4.62;73.45;96102.34;5110347;28;20272;-63
2021/01/18 09:13:30;;;;;;;12.07;7.17;;;;;;;-4.56;74.64;96104.16;5110106;28;20242;-64
2021/01/18 09:15:58;;;;;;;14.57;7.33;;;;;;;-4.48;74.10;96105.75;5109927;28;20248;-64
2021/01/18 09:18:27;;;;;;;13.13;7.37;;;;;;;-4.46;73.69;96103.84;5109987;28;20251;-64
2021/01/18 09:20:55;;;;;;;12.83;6.77;;;;;;;-4.58;71.93;96111.16;5110232;28;20645;-64
2021/01/18 09:23:22;;;;;;;9.93;5.97;;;;;;;-4.58;71.50;96106.06;5109862;28;20653;-64
2021/01/18 09:26:00;;;;;;;11.60;6.53;;;;;;;-4.19;71.24;96100.50;5110018;28;20274;-64
2021/01/18 09:28:27;;;;;;;11.23;6.63;;;;;;;-3.94;68.61;96094.03;5109980;28;20244;-64
2021/01/18 09:30:54;;;;;;;10.13;5.73;;;;;;;-4.02;68.90;96101.75;5110127;28;20198;-64
2021/01/18 09:33:26;;;;;;;11.77;6.10;;;;;;;-3.84;69.80;96091.13;5111942;28;20199;-64
2021/01/18 09:35:54;;;;;;;9.63;5.90;;;;;;;-4.09;67.46;96088.28;5113523;28;20225;-64
2021/01/18 09:38:21;;;;;;;12.30;6.37;;;;;;;-4.25;69.10;96085.25;5113904;28;20191;-64
2021/01/18 09:40:48;;;;;;;10.77;6.10;;;;;;;-4.21;68.84;96092.28;5113440;28;20226;-64
2021/01/18 09:43:20;;;;;;;10.23;5.30;;;;;;;-4.43;67.62;96086.50;5113515;28;20237;-63
2021/01/18 09:45:55;;;;;;;11.67;6.23;;;;;;;-4.26;69.60;96076.06;5113613;28;20227;-64
2021/01/18 09:48:24;;;;;;;8.73;5.30;;;;;;;-4.16;69.71;96084.13;5113553;28;20277;-64
2021/01/18 09:51:00;;;;;;;9.50;5.63;;;;;;;-3.82;67.94;96075.69;5113444;28;20202;-64
2021/01/18 09:53:27;;;;;;;10.47;5.80;;;;;;;-3.55;67.50;96073.06;5113360;28;20277;-65
2021/01/18 09:55:56;;;;;;;9.37;6.00;;;;;;;-3.69;66.56;96068.16;5113342;28;20191;-64
2021/01/18 09:58:32;;;;;;;13.33;5.87;;;;;;;-3.56;68.51;96071.50;5113162;28;20573;-64
2021/01/18 10:01:02;;;;;;;11.07;6.50;;;;;;;-3.86;68.44;96075.28;5113047;28;20202;-64
2021/01/18 10:03:31;;;;;;;12.87;6.60;;;;;;;-3.87;68.54;96071.19;5113000;28;20223;-64
2021/01/18 10:06:07;;;;;;;9.27;6.03;;;;;;;-3.89;69.05;96065.53;5112903;28;20734;-64
2021/01/18 10:08:36;;;;;;;11.37;6.77;;;;;;;-3.37;68.14;96074.28;5112989;28;20198;-63
2021/01/18 10:11:06;;;;;;;11.07;6.77;;;;;;;-3.05;67.31;96064.19;5112907;28;20200;-63
2021/01/18 10:13:36;;;;;;;9.10;5.90;;;;;;;-3.04;66.44;96068.28;5112632;28;20323;-64
2021/01/18 10:16:09;;;;;;;10.37;5.87;;;;;;;-2.90;66.21;96066.56;5112708;28;20219;-62
2021/01/18 10:18:39;;;;;;;9.40;6.10;;;;;;;-2.94;64.87;96067.94;5112706;28;20222;-64
2021/01/18 10:21:07;;;;;;;13.33;6.13;;;;;;;-3.18;64.14;96060.84;5112808;28;20669;-63
2021/01/18 10:23:36;;;;;;;9.43;5.80;;;;;;;-3.16;65.50;96056.34;5112612;28;20278;-64
2021/01/18 10:26:20;;;;;;;8.97;5.83;;;;;;;-3.13;65.15;96061.03;5112625;28;20206;-64
2021/01/18 10:28:53;;;;;;;11.60;7.00;;;;;;;-3.26;65.00;96046.56;5112823;28;20195;-64
2021/01/18 10:31:21;;;;;;;12.17;5.80;;;;;;;-3.36;65.62;96046.16;5112500;28;20713;-63
2021/01/18 10:34:12;;;;;;;10.27;5.93;;;;;;;-3.20;65.48;96045.00;5112744;28;20191;-63
2021/01/18 10:36:41;;;;;;;10.07;6.00;;;;;;;-3.09;65.03;96045.19;5112508;28;20226;-63
2021/01/18 10:39:08;;;;;;;9.93;6.00;;;;;;;-3.08;64.33;96035.81;5112479;28;20293;-64
2021/01/18 10:41:36;;;;;;;7.20;5.00;;;;;;;-2.77;64.49;96036.03;5112246;28;20195;-64
2021/01/18 10:44:06;;;;;;;8.13;5.17;;;;;;;-2.85;63.96;96032.91;5111920;28;20408;-64
2021/01/18 10:46:33;;;;;;;8.70;5.67;;;;;;;-2.96;62.72;96036.03;5112166;28;20192;-63
2021/01/18 10:49:02;;;;;;;12.23;5.93;;;;;;;-2.94;63.24;96032.34;5112233;28;20195;-63
2021/01/18 10:51:30;;;;;;;7.97;5.13;;;;;;;-2.91;62.11;96034.47;5112128;28;20210;-64
2021/01/18 10:53:58;;;;;;;8.10;4.90;;;;;;;-2.71;61.88;96030.16;5112042;28;20191;-63
2021/01/18 10:56:32;;;;;;;12.27;6.83;;;;;;;-2.45;62.91;96033.66;5111946;28;20310;-64
2021/01/18 10:59:00;;;;;;;16.83;6.37;;;;;;;-2.67;63.04;96026.25;5112343;28;20194;-63
2021/01/18 11:01:27;;;;;;;11.83;7.23;;;;;;;-2.74;63.97;96017.81;5112049;28;20243;-63
2021/01/18 11:04:05;;;;;;;13.30;6.77;;;;;;;-2.45;63.43;96031.13;5112146;28;20706;-63
2021/01/18 11:06:35;;;;;;;10.63;6.50;;;;;;;-2.72;62.61;96033.69;5112019;28;20268;-63
2021/01/18 11:09:03;;;;;;;10.20;6.40;;;;;;;-2.75;63.65;96029.00;5111746;28;20195;-63
2021/01/18 11:11:30;;;;;;;13.87;7.10;;;;;;;-2.68;63.01;96021.34;5111818;28;20278;-63
2021/01/18 11:14:01;;;;;;;14.13;8.53;;;;;;;-2.58;63.58;96026.03;5111412;28;20717;-64
2021/01/18 11:16:29;;;;;;;16.43;8.00;;;;;;;-2.43;61.80;96026.59;5111537;28;20732;-63
2021/01/18 11:19:02;;;;;;;15.67;8.77;;;;;;;-2.62;62.57;96026.44;5111374;28;20264;-64
2021/01/18 11:21:29;;;;;;;13.60;7.57;;;;;;;-2.91;63.56;96020.97;5111519;28;20326;-63
2021/01/18 11:23:56;;;;;;;13.63;8.50;;;;;;;-2.75;64.04;96012.97;5111439;28;20286;-64
2021/01/18 11:26:26;;;;;;;12.00;8.07;;;;;;;-2.87;64.57;96017.84;5111760;28;20285;-64
2021/01/18 11:28:53;;;;;;;14.40;7.80;;;;;;;-3.05;65.55;96018.44;5111456;28;20275;-64
2021/01/18 11:31:20;;;;;;;11.87;7.43;;;;;;;-3.12;62.38;96027.03;5111131;28;20246;-63
2021/01/18 11:33:47;;;;;;;12.33;7.13;;;;;;;-3.03;64.96;96024.09;5111268;28;20677;-64
2021/01/18 11:36:14;;;;;;;12.87;8.10;;;;;;;-2.79;65.00;96020.19;5111256;28;20258;-63
2021/01/18 11:38:41;;;;;;;13.67;8.37;;;;;;;-2.58;64.39;96015.84;5111382;28;20240;-63
2021/01/18 11:41:07;;;;;;;13.97;8.43;;;;;;;-2.85;63.46;96015.91;5111320;28;20202;-64